Time;durP1;ratioP1;P1;durP2;ratioP2;P2;SDS_P1;SDS_P2;PMS_P1;PMS_P2;Temp;Humidity;BMP_temperature;BMP_pressure;BME280_temperature;BME280_humidity;BME280_pressure;Samples;Min_cycle;Max_cycle;Signal;HPM_P1;HPM_P2
2022/02/03 00:01:49;;;;;;;23.70;22.60;;;19.00;63.70;;;;;;5051637;28;20472;-42
2022/02/03 00:04:19;;;;;;;24.77;23.57;;;19.00;63.80;;;;;;5051619;28;20452;-43
2022/02/03 00:06:51;;;;;;;23.17;22.17;;;19.00;63.70;;;;;;5071486;28;20443;-43
2022/02/03 00:09:49;;;;;;;23.70;22.60;;;19.00;63.90;;;;;;5071737;28;20843;-43
2022/02/03 00:23:36;;;;;;;23.43;22.30;;;18.90;64.30;;;;;;5028690;28;20420;-42
2022/02/03 00:26:03;;;;;;;24.03;22.93;;;19.00;64.50;;;;;;5051244;28;20444;-43
2022/02/03 00:28:35;;;;;;;22.73;21.63;;;18.90;64.40;;;;;;5051375;28;20629;-43
2022/02/03 00:31:09;;;;;;;22.90;21.80;;;18.90;64.50;;;;;;5051262;28;20471;-43
2022/02/03 00:33:49;;;;;;;22.87;21.87;;;18.90;64.60;;;;;;5051210;28;20470;-43
2022/02/03 00:36:20;;;;;;;23.67;22.57;;;18.90;64.80;;;;;;5051114;28;20523;-44
2022/02/03 00:49:59;;;;;;;24.37;23.17;;;18.80;65.20;;;;;;5070585;28;20489;-43
2022/02/03 00:52:27;;;;;;;24.43;23.07;;;18.80;65.20;;;;;;5071171;28;20903;-44
2022/02/03 00:54:54;;;;;;;24.43;23.23;;;18.80;65.30;;;;;;5071169;28;20485;-43
2022/02/03 00:57:30;;;;;;;23.80;22.73;;;18.70;65.40;;;;;;5072024;28;20446;-43
2022/02/03 01:00:05;;;;;;;24.60;23.40;;;18.70;65.70;;;;;;5074557;28;20792;-43
2022/02/03 01:02:37;;;;;;;24.10;22.90;;;18.70;65.70;;;;;;5054839;28;20463;-44
2022/02/03 01:05:06;;;;;;;23.47;22.33;;;18.70;65.80;;;;;;5054950;28;20811;-43
2022/02/03 01:07:36;;;;;;;23.10;22.00;;;18.70;65.90;;;;;;5054553;28;20795;-44
2022/02/03 01:10:10;;;;;;;22.90;21.90;;;18.60;66.10;;;;;;5054791;28;20451;-43
2022/02/03 01:12:47;;;;;;;23.37;22.30;;;18.60;66.20;;;;;;5058949;28;20467;-44
2022/02/03 01:15:22;;;;;;;23.73;22.60;;;18.60;66.30;;;;;;5074556;28;20447;-43
2022/02/03 01:18:03;;;;;;;23.00;21.80;;;18.60;66.30;;;;;;5074558;28;20503;-43
2022/02/03 01:20:58;;;;;;;22.77;21.67;;;18.60;66.50;;;;;;5074570;28;20443;-43
2022/02/03 01:34:38;;;;;;;23.37;22.30;;;18.60;66.90;;;;;;5054308;28;20439;-43
2022/02/03 01:37:18;;;;;;;22.70;21.60;;;18.60;67.00;;;;;;5054119;28;20452;-46
2022/02/03 01:45:22;;;;;;;22.80;21.80;;;18.50;67.20;;;;;;5074020;28;20790;-45
2022/02/03 01:48:18;;;;;;;23.00;21.97;;;18.50;67.50;;;;;;5073974;28;20941;-42
2022/02/03 01:53:32;;;;;;;22.60;21.60;;;18.50;67.70;;;;;;5066452;28;20492;-50
2022/02/03 01:56:04;;;;;;;22.70;21.70;;;18.50;67.60;;;;;;5053939;28;20444;-46
2022/02/03 01:58:43;;;;;;;22.60;21.70;;;18.50;67.70;;;;;;5053952;28;20448;-46
2022/02/03 02:01:14;;;;;;;23.70;22.50;;;18.50;67.70;;;;;;5053842;28;20821;-45
2022/02/03 02:03:46;;;;;;;23.30;22.20;;;18.50;67.80;;;;;;5060067;28;20443;-45
2022/02/03 02:06:56;;;;;;;23.20;22.10;;;18.50;67.80;;;;;;5073624;28;20806;-46
2022/02/03 02:09:36;;;;;;;22.57;21.60;;;18.50;67.80;;;;;;5058022;28;20455;-46
2022/02/03 02:12:22;;;;;;;23.80;22.60;;;18.50;68.00;;;;;;5073596;28;20560;-48
2022/02/03 02:37:56;;;;;;;22.90;21.80;;;18.30;68.90;;;;;;5052983;28;20799;-43
2022/02/03 02:40:50;;;;;;;23.13;22.13;;;18.30;69.00;;;;;;5054062;28;20448;-46
2022/02/03 02:43:25;;;;;;;22.80;21.73;;;18.30;69.20;;;;;;5052967;28;20447;-43
2022/02/03 02:46:01;;;;;;;22.80;21.70;;;18.30;69.40;;;;;;5052820;28;20526;-43
2022/02/03 02:48:53;;;;;;;22.57;21.60;;;18.30;69.30;;;;;;5053271;28;20455;-43
2022/02/03 02:51:32;;;;;;;22.70;21.70;;;18.20;69.30;;;;;;5052792;28;20483;-44
2022/02/03 02:54:21;;;;;;;23.43;22.33;;;18.20;69.50;;;;;;5052827;28;20808;-47
2022/02/03 02:57:07;;;;;;;23.23;22.13;;;18.20;69.30;;;;;;5052624;28;20444;-43
2022/02/03 03:00:09;;;;;;;23.13;22.13;;;18.20;69.50;;;;;;5056117;28;20475;-47
2022/02/03 03:30:33;;;;;;;23.20;22.17;;;18.10;70.60;;;;;;5052196;28;20473;-43
2022/02/03 03:33:16;;;;;;;23.30;22.20;;;18.00;70.50;;;;;;5052099;28;20549;-43
2022/02/03 03:35:47;;;;;;;22.70;21.70;;;18.10;70.70;;;;;;5056190;28;20457;-44
2022/02/03 03:38:18;;;;;;;23.00;22.00;;;18.00;70.70;;;;;;5071959;28;20855;-45
2022/02/03 03:40:49;;;;;;;23.60;22.50;;;18.10;70.80;;;;;;5071945;28;20451;-43
2022/02/03 03:43:26;;;;;;;23.43;22.27;;;18.10;70.80;;;;;;5071981;28;20439;-44
2022/02/03 03:45:54;;;;;;;22.97;21.97;;;18.00;70.80;;;;;;5052025;28;20459;-44
2022/02/03 03:48:30;;;;;;;22.40;21.40;;;18.00;70.90;;;;;;5051834;28;20448;-44
2022/02/03 03:51:02;;;;;;;23.00;22.00;;;18.00;70.90;;;;;;5051714;28;20471;-44
2022/02/03 03:53:41;;;;;;;23.03;22.03;;;18.00;71.10;;;;;;5051781;28;20484;-44
2022/02/03 03:56:16;;;;;;;22.67;21.67;;;18.00;71.10;;;;;;5051617;28;20451;-43
2022/02/03 03:59:10;;;;;;;22.90;21.80;;;18.00;71.20;;;;;;5051717;28;20570;-43
2022/02/03 04:40:11;;;;;;;21.43;20.53;;;17.80;72.40;;;;;;5109545;27;20573;-44
2022/02/03 04:43:29;;;;;;;21.50;20.60;;;17.80;72.50;;;;;;5095945;28;20545;-43
2022/02/03 04:55:31;;;;;;;21.40;20.50;;;17.80;73.10;;;;;;5061461;28;20469;-44
2022/02/03 05:01:42;;;;;;;21.10;20.20;;;17.70;73.40;;;;;;5088781;28;20962;-45
2022/02/03 05:04:39;;;;;;;21.65;20.67;;;17.80;73.50;;;;;;5088884;28;21004;-45
2022/02/03 05:07:50;;;;;;;21.50;20.47;;;17.70;73.30;;;;;;5103904;28;20657;-45
2022/02/03 05:11:10;;;;;;;21.37;20.47;;;17.70;73.40;;;;;;5109201;28;20452;-44
2022/02/03 05:14:18;;;;;;;21.37;20.47;;;17.80;73.50;;;;;;5108836;28;20450;-44
2022/02/03 05:20:19;;;;;;;22.00;21.00;;;17.70;73.60;;;;;;5088400;28;20467;-47
2022/02/03 05:26:25;;;;;;;21.80;20.80;;;17.70;73.80;;;;;;5087956;28;20513;-43
2022/02/03 05:32:37;;;;;;;21.50;20.50;;;17.70;74.30;;;;;;5088227;28;20575;-43
2022/02/03 05:35:20;;;;;;;21.73;20.73;;;17.70;74.60;;;;;;5088309;28;20442;-45
2022/02/03 05:44:06;;;;;;;21.40;20.40;;;17.70;75.00;;;;;;5106505;28;20436;-45
2022/02/03 05:46:55;;;;;;;21.87;20.87;;;17.70;75.20;;;;;;5087805;28;20847;-44
2022/02/03 05:55:12;;;;;;;21.73;20.70;;;18.60;76.30;;;;;;5073697;28;20549;-46
2022/02/03 06:03:30;;;;;;;22.52;21.45;;;19.50;70.80;;;;;;5074323;28;20419;-44
2022/02/03 06:06:12;;;;;;;22.23;21.07;;;19.70;69.20;;;;;;5073297;28;20284;-45
2022/02/03 06:08:52;;;;;;;23.30;21.90;;;19.80;68.30;;;;;;5074060;28;20496;-44
2022/02/03 06:14:10;;;;;;;22.98;21.77;;;20.00;68.30;;;;;;5074008;28;20932;-44
2022/02/03 06:16:47;;;;;;;22.70;21.60;;;20.10;68.30;;;;;;5073737;28;20224;-45
2022/02/03 06:22:22;;;;;;;23.53;22.03;;;20.20;70.80;;;;;;5073786;28;20438;-45
2022/02/03 06:27:23;;;;;;;25.00;23.50;;;20.30;72.50;;;;;;5073904;28;20443;-43
2022/02/03 06:27:39;;;;;;;24.30;22.83;;;20.30;74.30;;;;;;5073431;28;20282;-44
2022/02/03 06:30:08;;;;;;;28.80;24.20;;;20.30;83.60;;;;;;5073504;28;20444;-44
2022/02/03 06:32:38;;;;;;;25.30;23.30;;;20.40;86.90;;;;;;5073557;28;20883;-44
2022/02/03 06:35:07;;;;;;;26.90;24.47;;;20.40;90.00;;;;;;5072949;28;20443;-48
2022/02/03 06:37:33;;;;;;;26.50;24.00;;;20.50;91.40;;;;;;5072922;28;20463;-44
2022/02/03 06:40:00;;;;;;;24.33;22.93;;;20.50;91.50;;;;;;5073414;28;20439;-42
2022/02/03 06:42:27;;;;;;;26.03;24.00;;;20.50;90.70;;;;;;5073377;28;20470;-44
2022/02/03 06:44:58;;;;;;;26.80;24.07;;;20.50;89.40;;;;;;5073243;28;20451;-44
2022/02/03 06:47:29;;;;;;;25.87;24.07;;;20.50;88.10;;;;;;5073218;28;20490;-44
2022/02/03 06:50:02;;;;;;;24.70;22.90;;;20.50;86.20;;;;;;5073448;28;20443;-44
2022/02/03 06:52:44;;;;;;;25.03;23.47;;;20.50;84.30;;;;;;5073257;28;20467;-48
2022/02/03 06:55:15;;;;;;;24.40;22.77;;;20.50;82.60;;;;;;5073131;28;20447;-43
2022/02/03 06:57:48;;;;;;;24.53;22.87;;;20.50;81.70;;;;;;5072980;28;20443;-44
2022/02/03 07:00:20;;;;;;;25.20;23.33;;;20.50;80.90;;;;;;5073073;28;20451;-46
2022/02/03 07:02:50;;;;;;;24.23;22.83;;;20.50;79.60;;;;;;5072122;28;20546;-44
2022/02/03 07:05:18;;;;;;;25.47;23.23;;;20.50;78.60;;;;;;5072908;28;20439;-44
2022/02/03 07:07:45;;;;;;;25.00;23.33;;;20.50;77.90;;;;;;5072979;28;20483;-44
2022/02/03 07:10:12;;;;;;;26.20;24.20;;;20.50;77.20;;;;;;5072808;28;20443;-43
2022/02/03 07:12:40;;;;;;;24.67;23.20;;;20.50;76.30;;;;;;5072787;28;20692;-44
2022/02/03 07:15:09;;;;;;;24.07;22.53;;;20.50;75.60;;;;;;5072781;28;20504;-44
2022/02/03 07:17:37;;;;;;;25.10;23.40;;;20.50;75.00;;;;;;5072580;28;20457;-43
2022/02/03 07:20:06;;;;;;;28.63;26.57;;;20.50;74.40;;;;;;5072595;28;20486;-43
2022/02/03 07:22:35;;;;;;;26.50;24.93;;;20.50;73.90;;;;;;5072625;28;20467;-43
2022/02/03 07:25:02;;;;;;;29.93;28.17;;;20.50;73.40;;;;;;5072472;28;20454;-43
2022/02/03 07:27:29;;;;;;;27.10;25.50;;;20.50;73.00;;;;;;5072282;28;20500;-44
2022/02/03 07:29:56;;;;;;;28.20;26.65;;;20.50;72.50;;;;;;5072576;28;20446;-43
2022/02/03 07:32:24;;;;;;;28.50;26.80;;;20.50;72.10;;;;;;5072295;28;20581;-44
2022/02/03 07:34:53;;;;;;;26.30;24.90;;;20.50;71.60;;;;;;5072474;28;20447;-44
2022/02/03 07:37:22;;;;;;;26.80;24.90;;;20.50;71.20;;;;;;5072109;28;20451;-43
2022/02/03 07:39:50;;;;;;;24.00;22.63;;;20.40;70.60;;;;;;5072147;28;20483;-44
2022/02/03 07:42:17;;;;;;;23.67;22.33;;;20.40;70.30;;;;;;5072209;28;20562;-44
2022/02/03 07:44:44;;;;;;;25.80;24.13;;;20.40;70.10;;;;;;5072152;28;20443;-44
2022/02/03 07:47:10;;;;;;;24.30;22.90;;;20.40;69.90;;;;;;5072083;28;20822;-44
2022/02/03 07:49:37;;;;;;;25.13;23.73;;;20.40;69.60;;;;;;5072138;28;20450;-46
2022/02/03 07:52:05;;;;;;;24.90;23.60;;;20.30;69.20;;;;;;5072233;28;20471;-46
2022/02/03 07:54:32;;;;;;;26.13;24.70;;;20.30;69.10;;;;;;5072092;28;20450;-44
2022/02/03 07:57:01;;;;;;;26.30;24.80;;;20.30;68.90;;;;;;5071726;28;20451;-44
2022/02/03 07:59:28;;;;;;;27.00;25.40;;;20.30;68.70;;;;;;5071866;28;20486;-47
2022/02/03 08:01:55;;;;;;;27.40;25.80;;;20.30;68.50;;;;;;5071755;28;20538;-44
2022/02/03 08:04:27;;;;;;;28.17;26.60;;;20.30;68.30;;;;;;5071875;28;20450;-46
2022/02/03 08:06:54;;;;;;;28.03;26.63;;;20.20;68.00;;;;;;5071747;28;20833;-47
2022/02/03 08:09:24;;;;;;;27.53;26.03;;;20.20;67.90;;;;;;5071861;28;20443;-46
2022/02/03 08:11:53;;;;;;;26.77;25.27;;;20.20;67.60;;;;;;5071867;28;20467;-48
2022/02/03 08:14:28;;;;;;;29.80;28.10;;;20.20;67.40;;;;;;5071707;28;20455;-45
2022/02/03 08:17:00;;;;;;;27.90;26.40;;;20.20;67.20;;;;;;5071581;28;20443;-44
2022/02/03 08:19:32;;;;;;;30.63;29.02;;;20.20;67.10;;;;;;5071600;28;20479;-47
2022/02/03 08:22:03;;;;;;;30.57;28.97;;;20.10;66.80;;;;;;5071666;28;20701;-43
2022/02/03 08:24:33;;;;;;;30.57;29.10;;;20.10;66.60;;;;;;5071766;28;20641;-46
2022/02/03 08:27:23;;;;;;;30.13;28.13;;;20.10;66.60;;;;;;5071316;28;20494;-49
2022/02/03 08:32:42;;;;;;;29.93;28.43;;;19.90;66.70;;;;;;5071565;28;20438;-45
2022/02/03 08:35:20;;;;;;;29.97;28.57;;;19.70;67.10;;;;;;5071588;28;20444;-45
2022/02/03 08:37:59;;;;;;;31.70;30.10;;;19.60;67.60;;;;;;5071430;28;20458;-43
2022/02/03 08:40:32;;;;;;;30.43;28.77;;;19.60;68.00;;;;;;5071527;28;20517;-45
2022/02/03 08:42:59;;;;;;;29.93;28.50;;;19.50;67.90;;;;;;5071654;28;20451;-46
2022/02/03 08:45:27;;;;;;;31.97;30.47;;;19.50;68.10;;;;;;5071318;28;20924;-44
2022/02/03 08:47:54;;;;;;;26.97;25.40;;;19.50;68.30;;;;;;5071476;28;20458;-47
2022/02/03 08:50:22;;;;;;;26.80;25.43;;;19.40;68.30;;;;;;5071383;28;20439;-43
2022/02/03 08:52:57;;;;;;;27.13;25.67;;;19.40;68.30;;;;;;5071335;28;20478;-43
2022/02/03 08:55:30;;;;;;;26.57;25.10;;;19.40;68.50;;;;;;5071255;28;20445;-45
2022/02/03 09:01:03;;;;;;;26.50;25.10;;;19.30;68.40;;;;;;5067448;28;21003;-46
2022/02/03 09:29:26;;;;;;;29.10;27.87;;;19.30;68.00;;;;;;5074809;28;20943;-43
2022/02/03 09:37:28;;;;;;;27.23;25.93;;;19.50;66.60;;;;;;5074330;28;20415;-48
2022/02/03 09:54:22;;;;;;;29.53;28.30;;;19.70;65.20;;;;;;5074464;28;20508;-44
2022/02/03 09:59:42;;;;;;;28.30;26.87;;;19.80;64.20;;;;;;5074425;28;20832;-45
2022/02/03 10:02:13;;;;;;;28.23;26.93;;;19.80;64.10;;;;;;5074201;28;20470;-44
2022/02/03 10:04:48;;;;;;;27.03;25.83;;;19.80;63.80;;;;;;5074241;28;20448;-43
2022/02/03 10:07:20;;;;;;;26.00;24.80;;;19.80;63.70;;;;;;5074102;28;20442;-44
2022/02/03 10:09:48;;;;;;;27.57;26.37;;;19.90;63.40;;;;;;5074057;28;20528;-46
2022/02/03 10:12:15;;;;;;;26.60;25.50;;;19.90;63.20;;;;;;5073970;28;20459;-43
2022/02/03 10:14:44;;;;;;;28.07;26.77;;;19.90;63.00;;;;;;5073960;28;20443;-43
2022/02/03 10:17:12;;;;;;;27.20;26.00;;;19.90;62.80;;;;;;5073689;28;20451;-46
2022/02/03 10:19:42;;;;;;;28.20;26.90;;;19.90;62.60;;;;;;5073794;28;20566;-43
2022/02/03 10:22:14;;;;;;;27.40;26.20;;;19.90;62.50;;;;;;5073769;28;20471;-44
2022/02/03 10:24:47;;;;;;;25.52;24.42;;;19.90;62.40;;;;;;5073842;28;20451;-44
2022/02/03 10:27:27;;;;;;;25.15;24.05;;;19.90;62.10;;;;;;5073623;28;20682;-44
2022/02/03 10:30:22;;;;;;;26.23;25.13;;;19.90;62.10;;;;;;5073744;28;20747;-43
2022/02/03 10:32:49;;;;;;;25.50;24.40;;;19.90;61.80;;;;;;5073517;28;20467;-42
2022/02/03 10:35:20;;;;;;;25.50;24.30;;;19.90;61.40;;;;;;5073314;28;20809;-47
2022/02/03 10:37:50;;;;;;;28.03;26.83;;;19.90;61.20;;;;;;5073292;28;20451;-44
2022/02/03 10:40:41;;;;;;;27.67;26.37;;;19.90;61.60;;;;;;5073289;28;21324;-43
2022/02/03 10:46:12;;;;;;;27.25;26.05;;;19.90;61.00;;;;;;5073056;28;20193;-43
2022/02/03 10:54:51;;;;;;;25.50;24.40;;;19.80;60.60;;;;;;5046607;28;20427;-46
2022/02/03 10:57:39;;;;;;;25.57;24.47;;;19.70;60.50;;;;;;5072972;28;20453;-44
2022/02/03 11:00:49;;;;;;;27.27;26.07;;;19.70;60.30;;;;;;5073036;28;20509;-46
2022/02/03 11:03:24;;;;;;;24.70;23.40;;;19.60;60.50;;;;;;5072959;28;20443;-45
2022/02/03 11:06:07;;;;;;;27.20;25.90;;;19.40;61.20;;;;;;5072824;28;20447;-44
2022/02/03 11:08:41;;;;;;;25.90;24.70;;;19.40;61.40;;;;;;5073016;28;20482;-42
2022/02/03 11:11:14;;;;;;;25.97;24.87;;;19.30;61.70;;;;;;5072772;28;20467;-42
2022/02/03 11:13:43;;;;;;;27.37;26.20;;;19.30;61.80;;;;;;5072835;28;20461;-43
2022/02/03 11:16:11;;;;;;;27.20;26.00;;;19.20;62.20;;;;;;5072462;28;20443;-42
2022/02/03 11:18:41;;;;;;;29.90;28.60;;;19.20;62.30;;;;;;5072783;28;20447;-44
2022/02/03 11:21:08;;;;;;;26.83;25.63;;;19.20;62.40;;;;;;5072521;28;20487;-43
2022/02/03 11:23:39;;;;;;;29.80;28.50;;;19.20;62.70;;;;;;5072552;28;21016;-43
2022/02/03 11:26:15;;;;;;;29.30;28.10;;;19.30;62.50;;;;;;5072351;28;20919;-43
2022/02/03 11:37:43;;;;;;;25.30;24.20;;;19.60;61.20;;;;;;5051188;28;20463;-43
2022/02/03 11:40:35;;;;;;;29.10;27.80;;;19.60;60.60;;;;;;5072306;28;20483;-43
2022/02/03 12:17:30;;;;;;;25.20;24.00;;;19.70;58.70;;;;;;5048261;28;20949;-51
2022/02/03 12:20:05;;;;;;;25.60;24.40;;;19.70;58.80;;;;;;5048627;28;20808;-49
2022/02/03 12:25:42;;;;;;;26.13;24.93;;;19.70;58.50;;;;;;5042673;28;20531;-51
2022/02/03 12:28:22;;;;;;;24.63;23.53;;;19.60;58.30;;;;;;5048387;28;20535;-48
2022/02/03 12:31:09;;;;;;;25.43;24.27;;;19.60;58.60;;;;;;5048272;28;20567;-48
2022/02/03 12:39:12;;;;;;;25.07;23.97;;;19.60;58.70;;;;;;5048317;28;20424;-49
2022/02/03 12:41:44;;;;;;;24.40;23.30;;;19.50;58.60;;;;;;5048161;28;20476;-51
2022/02/03 12:44:19;;;;;;;25.87;24.57;;;19.50;58.60;;;;;;5047987;28;20472;-51
2022/02/03 12:46:46;;;;;;;24.60;23.50;;;19.50;58.40;;;;;;5047770;28;20448;-51
2022/02/03 12:49:13;;;;;;;26.80;25.50;;;19.40;58.50;;;;;;5048010;28;20523;-52
2022/02/03 12:51:40;;;;;;;24.97;23.87;;;19.40;58.70;;;;;;5047817;28;20488;-51
2022/02/03 12:54:11;;;;;;;25.90;24.70;;;19.40;58.80;;;;;;5047859;28;20473;-50
2022/02/03 12:56:40;;;;;;;25.10;24.00;;;19.30;58.90;;;;;;5047511;28;20449;-48
2022/02/03 12:59:10;;;;;;;24.90;23.80;;;19.20;59.10;;;;;;5047867;28;20786;-49
2022/02/03 13:01:40;;;;;;;25.47;24.37;;;19.10;59.50;;;;;;5042010;28;20652;-51
2022/02/03 13:04:12;;;;;;;26.00;24.90;;;19.10;59.80;;;;;;5034252;28;20468;-49
2022/02/03 13:06:43;;;;;;;25.93;24.63;;;19.00;59.80;;;;;;5034165;28;20445;-50
2022/02/03 13:09:11;;;;;;;26.40;25.20;;;19.00;60.10;;;;;;5034378;28;20446;-52
2022/02/03 13:11:41;;;;;;;25.80;24.60;;;19.10;60.20;;;;;;5034113;28;20857;-52
2022/02/03 13:14:22;;;;;;;24.07;23.07;;;19.20;59.90;;;;;;5034208;28;20465;-51
2022/02/03 13:16:54;;;;;;;24.60;23.50;;;19.30;59.50;;;;;;5034109;28;20481;-50
2022/02/03 13:19:32;;;;;;;24.87;23.77;;;19.40;59.50;;;;;;5034333;28;20528;-50
2022/02/03 13:22:13;;;;;;;24.30;23.20;;;19.50;59.00;;;;;;5034203;28;20908;-53
2022/02/03 13:25:02;;;;;;;25.47;24.37;;;19.60;58.90;;;;;;5033975;28;20223;-52
2022/02/03 13:27:36;;;;;;;24.87;23.77;;;19.60;58.50;;;;;;5033807;28;20452;-52
2022/02/03 13:30:10;;;;;;;23.77;22.77;;;19.60;58.30;;;;;;5033790;28;20481;-50
2022/02/03 13:32:41;;;;;;;25.37;24.30;;;19.60;58.30;;;;;;5033860;28;20935;-51
2022/02/03 13:35:25;;;;;;;22.50;21.60;;;19.70;58.30;;;;;;5033871;28;20466;-50
2022/02/03 13:37:55;;;;;;;28.03;26.83;;;19.70;57.80;;;;;;5033923;28;20453;-53
2022/02/03 13:40:25;;;;;;;26.73;25.63;;;19.70;58.00;;;;;;5033901;28;20445;-49
2022/02/03 13:42:59;;;;;;;27.87;26.67;;;19.70;57.90;;;;;;5033869;28;20445;-49
2022/02/03 13:45:28;;;;;;;27.63;26.43;;;19.70;57.90;;;;;;5034376;28;20469;-48
2022/02/03 13:47:54;;;;;;;26.80;25.60;;;19.70;57.70;;;;;;5033737;28;20460;-49
2022/02/03 13:50:25;;;;;;;26.70;25.60;;;19.70;57.40;;;;;;5033530;28;20484;-52
2022/02/03 13:52:57;;;;;;;26.20;25.10;;;19.70;57.70;;;;;;5033634;28;20449;-48
2022/02/03 14:15:12;;;;;;;25.93;24.83;;;19.60;57.30;;;;;;5032640;28;20475;-48
2022/02/03 14:20:45;;;;;;;27.20;26.10;;;19.60;57.00;;;;;;5033071;28;20926;-48
2022/02/03 14:28:42;;;;;;;27.57;26.47;;;19.50;56.90;;;;;;5032935;28;20421;-48
2022/02/03 14:31:09;;;;;;;27.60;26.50;;;19.50;57.00;;;;;;5032590;28;20571;-53
2022/02/03 14:33:41;;;;;;;27.07;25.97;;;19.50;57.00;;;;;;5032716;28;20445;-48
2022/02/03 14:36:10;;;;;;;25.67;24.67;;;19.40;57.10;;;;;;5032545;28;20969;-49
2022/02/03 14:38:44;;;;;;;24.80;23.70;;;19.40;57.20;;;;;;5032630;28;20449;-48
2022/02/03 14:41:19;;;;;;;24.90;23.80;;;19.40;57.00;;;;;;5032705;28;20451;-49
2022/02/03 14:43:45;;;;;;;26.13;25.03;;;19.40;57.10;;;;;;5032597;28;20850;-48
2022/02/03 14:46:15;;;;;;;27.57;26.47;;;19.30;57.00;;;;;;5032378;28;20528;-49
2022/02/03 14:48:44;;;;;;;27.90;26.80;;;19.30;57.30;;;;;;5032325;28;20947;-48
2022/02/03 14:51:14;;;;;;;27.90;26.80;;;19.20;57.30;;;;;;5032361;28;20485;-50
2022/02/03 14:53:55;;;;;;;27.80;26.70;;;19.10;57.60;;;;;;5032246;28;20449;-52
2022/02/03 14:59:06;;;;;;;28.93;27.73;;;19.10;58.00;;;;;;5032330;28;20897;-50
2022/02/03 15:01:33;;;;;;;27.70;26.60;;;19.20;58.20;;;;;;5032172;28;20953;-50
2022/02/03 15:04:04;;;;;;;29.00;27.90;;;19.30;58.00;;;;;;5043981;28;20476;-50
2022/02/03 15:06:37;;;;;;;25.53;24.43;;;19.40;57.80;;;;;;5051368;28;20448;-50
2022/02/03 15:09:18;;;;;;;28.50;27.40;;;19.50;58.40;;;;;;5051861;28;20481;-49
2022/02/03 15:11:59;;;;;;;28.30;27.20;;;19.60;59.30;;;;;;5051742;28;20515;-51
2022/02/03 15:14:26;;;;;;;30.67;29.30;;;19.70;59.50;;;;;;5051913;28;20464;-54
2022/02/03 15:16:53;;;;;;;28.80;27.63;;;19.80;59.80;;;;;;5051745;28;20789;-49
2022/02/03 15:19:21;;;;;;;29.13;27.93;;;19.70;59.90;;;;;;5051602;28;20451;-51
2022/02/03 15:21:48;;;;;;;29.30;28.10;;;19.80;60.30;;;;;;5051735;28;20432;-51
2022/02/03 15:24:14;;;;;;;28.40;27.20;;;19.80;60.20;;;;;;5051117;28;20475;-49
2022/02/03 15:26:41;;;;;;;29.30;28.10;;;19.80;60.40;;;;;;5051509;28;20511;-54
2022/02/03 15:29:10;;;;;;;29.20;28.10;;;19.80;60.40;;;;;;5051651;28;20440;-51
2022/02/03 15:31:37;;;;;;;29.93;28.73;;;19.80;60.80;;;;;;5051482;28;20476;-49
2022/02/03 15:34:06;;;;;;;28.00;26.90;;;19.80;60.70;;;;;;5051680;28;20476;-48
2022/02/03 15:36:37;;;;;;;28.50;27.23;;;19.70;60.30;;;;;;5051873;28;20869;-54
2022/02/03 15:39:08;;;;;;;27.83;26.73;;;19.70;61.60;;;;;;5051851;28;20949;-52
2022/02/03 15:41:35;;;;;;;27.37;26.27;;;19.80;61.60;;;;;;5051512;28;20448;-49
2022/02/03 15:44:03;;;;;;;26.70;25.50;;;19.80;62.60;;;;;;5051178;28;20468;-54
2022/02/03 15:46:34;;;;;;;26.10;24.90;;;19.80;63.30;;;;;;5051446;28;20456;-51
2022/02/03 15:49:10;;;;;;;28.20;27.00;;;19.70;64.40;;;;;;5051509;28;20468;-51
2022/02/03 15:57:36;;;;;;;26.90;25.60;;;19.80;65.40;;;;;;5051393;28;20518;-48
2022/02/03 16:02:56;;;;;;;24.33;23.37;;;19.70;66.30;;;;;;5051420;28;20416;-50
2022/02/03 16:19:00;;;;;;;24.07;23.07;;;19.50;72.60;;;;;;5051173;28;20421;-51
2022/02/03 16:21:33;;;;;;;22.80;21.80;;;19.40;73.00;;;;;;5050867;28;20444;-48
2022/02/03 16:24:23;;;;;;;22.43;21.63;;;19.30;71.70;;;;;;5050866;28;20469;-48
2022/02/03 16:40:49;;;;;;;22.60;21.70;;;19.20;72.10;;;;;;5051049;28;20484;-49
2022/02/03 16:41:00;;;;;;;25.03;24.00;;;18.90;72.90;;;;;;5054963;28;20836;-51
2022/02/03 16:43:55;;;;;;;21.87;20.87;;;18.90;72.30;;;;;;5054890;28;20876;-48
2022/02/03 16:52:03;;;;;;;22.55;21.27;;;18.80;73.50;;;;;;5054606;28;20479;-46
2022/02/03 16:54:30;;;;;;;22.00;20.90;;;18.90;72.90;;;;;;5054025;28;20222;-47
2022/02/03 16:57:02;;;;;;;21.80;20.70;;;19.10;73.10;;;;;;5054323;28;20483;-49
2022/02/03 16:59:31;;;;;;;22.20;21.20;;;19.30;72.50;;;;;;5054239;28;20453;-47
2022/02/03 17:01:58;;;;;;;21.77;20.77;;;19.30;71.50;;;;;;5054401;28;20826;-48
2022/02/03 17:04:25;;;;;;;21.70;20.70;;;19.40;71.20;;;;;;5054012;28;20479;-48
2022/02/03 17:06:52;;;;;;;21.40;20.40;;;19.50;71.10;;;;;;5054076;28;20452;-50
2022/02/03 17:09:18;;;;;;;21.73;20.53;;;19.50;70.70;;;;;;5054406;28;20441;-49
2022/02/03 17:11:45;;;;;;;23.27;22.17;;;19.60;70.40;;;;;;5054058;28;20484;-49
2022/02/03 17:14:13;;;;;;;21.87;20.83;;;19.60;70.70;;;;;;5053771;28;20472;-50
2022/02/03 17:16:40;;;;;;;22.33;21.23;;;19.60;71.50;;;;;;5053848;28;20455;-49
2022/02/03 17:19:07;;;;;;;21.77;20.67;;;19.60;70.50;;;;;;5053541;28;20449;-46
2022/02/03 17:21:33;;;;;;;21.60;20.60;;;19.60;70.40;;;;;;5053714;28;20447;-47
2022/02/03 17:24:01;;;;;;;22.10;21.00;;;19.60;70.30;;;;;;5053923;28;20471;-50
2022/02/03 17:26:34;;;;;;;22.87;21.77;;;19.60;70.20;;;;;;5053747;28;20440;-51
2022/02/03 17:29:08;;;;;;;21.50;20.50;;;19.70;70.10;;;;;;5054025;28;20881;-47
2022/02/03 17:31:53;;;;;;;21.93;20.73;;;19.60;69.90;;;;;;5053719;28;20480;-47
2022/02/03 17:52:15;;;;;;;21.90;20.90;;;19.70;68.90;;;;;;5053557;28;21012;-48
2022/02/03 18:08:27;;;;;;;21.60;20.60;;;19.50;69.10;;;;;;5053203;28;20420;-46
2022/02/03 18:10:52;;;;;;;21.30;20.30;;;19.40;68.80;;;;;;5052526;28;20471;-50
2022/02/03 18:32:48;;;;;;;21.70;20.70;;;18.80;71.80;;;;;;5037045;28;20854;-47
2022/02/03 18:35:35;;;;;;;21.70;20.70;;;18.80;72.20;;;;;;5052539;28;20522;-49
2022/02/03 18:51:46;;;;;;;21.57;20.57;;;19.40;70.70;;;;;;5032608;28;20969;-48
2022/02/03 18:54:22;;;;;;;21.90;20.80;;;19.50;70.60;;;;;;5032325;28;20484;-50
2022/02/03 18:56:55;;;;;;;21.67;20.57;;;19.60;70.20;;;;;;5032296;28;20445;-47
2022/02/03 18:59:52;;;;;;;21.30;20.30;;;19.60;69.80;;;;;;5033977;28;20442;-48
2022/02/03 19:02:50;;;;;;;21.50;20.50;;;19.60;69.20;;;;;;5052215;28;20652;-49
2022/02/03 20:01:16;;;;;;;21.50;20.50;;;19.10;79.20;;;;;;5051562;28;20991;-48
2022/02/03 20:03:57;;;;;;;22.90;21.80;;;19.10;78.60;;;;;;5051154;28;20443;-49
2022/02/03 20:06:37;;;;;;;22.07;21.00;;;19.10;80.00;;;;;;5050552;28;20453;-48
2022/02/03 20:09:12;;;;;;;21.80;20.80;;;19.00;79.90;;;;;;5051525;28;20450;-47
2022/02/03 20:11:39;;;;;;;21.43;20.50;;;18.90;80.40;;;;;;5053204;28;20480;-48
2022/02/03 20:14:12;;;;;;;22.10;21.00;;;18.90;80.90;;;;;;5055275;28;20849;-45
2022/02/03 20:16:40;;;;;;;21.77;20.67;;;18.90;81.20;;;;;;5054975;28;20480;-46
2022/02/03 20:19:07;;;;;;;22.20;21.10;;;18.90;82.40;;;;;;5055475;28;20443;-46
2022/02/03 20:21:35;;;;;;;22.20;21.20;;;18.80;82.20;;;;;;5055217;28;20469;-46
2022/02/03 20:24:04;;;;;;;22.10;21.10;;;18.80;82.80;;;;;;5055176;28;20468;-46
2022/02/03 20:26:31;;;;;;;22.30;21.20;;;18.80;83.10;;;;;;5054413;28;20456;-47
2022/02/03 20:28:58;;;;;;;22.60;21.50;;;18.70;83.00;;;;;;5055321;28;20455;-46
2022/02/03 20:31:24;;;;;;;22.53;21.33;;;18.80;83.00;;;;;;5054923;28;20506;-47
2022/02/03 20:33:53;;;;;;;22.00;21.00;;;18.90;83.00;;;;;;5054856;28;20455;-46
2022/02/03 20:36:20;;;;;;;21.50;20.50;;;19.10;82.70;;;;;;5054503;28;20459;-47
2022/02/03 20:38:48;;;;;;;22.73;21.65;;;19.30;81.00;;;;;;5054924;28;20444;-48
2022/02/03 20:41:15;;;;;;;22.03;21.03;;;19.30;79.80;;;;;;5054945;28;20252;-45
2022/02/03 20:43:42;;;;;;;21.97;20.87;;;19.40;78.80;;;;;;5054842;28;20525;-48
2022/02/03 20:46:09;;;;;;;22.10;21.00;;;19.50;78.10;;;;;;5054297;28;20441;-45
2022/02/03 20:48:45;;;;;;;21.90;20.90;;;19.50;77.20;;;;;;5054769;28;20444;-47
2022/02/03 20:51:14;;;;;;;21.08;20.08;;;19.50;77.00;;;;;;5053459;28;20925;-47
2022/02/03 20:53:41;;;;;;;22.00;21.00;;;19.50;76.90;;;;;;5054252;28;20663;-46
2022/02/03 20:56:08;;;;;;;21.87;20.87;;;19.60;76.40;;;;;;5054158;28;20444;-46
2022/02/03 20:58:36;;;;;;;21.52;20.52;;;19.60;76.40;;;;;;5054314;28;20443;-49
2022/02/03 21:01:11;;;;;;;21.20;20.30;;;19.60;76.20;;;;;;5054446;28;20671;-46
2022/02/03 21:03:40;;;;;;;21.60;20.60;;;19.60;75.90;;;;;;5054792;28;20479;-45
2022/02/03 21:06:09;;;;;;;21.40;20.50;;;19.60;76.10;;;;;;5054424;28;20468;-45